createdAt,value
2019-05-03T00:02:21.684Z,32.00
2019-05-03T00:05:28.885Z,32.10
2019-05-03T00:08:23.371Z,32.10
2019-05-03T00:11:16.672Z,32.00
2019-05-03T00:14:12.312Z,32.10
2019-05-03T00:17:05.549Z,32.10
2019-05-03T00:19:58.393Z,32.10
2019-05-03T00:22:52.403Z,32.10
2019-05-03T00:25:46.131Z,32.10
2019-05-03T00:28:39.188Z,32.10
2019-05-03T00:31:33.817Z,32.10
2019-05-03T00:34:33.221Z,32.10
2019-05-03T00:37:28.937Z,32.10
2019-05-03T00:40:32.371Z,32.10
2019-05-03T00:43:27.530Z,32.10
2019-05-03T00:46:22.021Z,32.10
2019-05-03T00:49:16.385Z,32.10
2019-05-03T00:52:09.439Z,32.10
2019-05-03T00:55:15.228Z,32.10
2019-05-03T00:57:59.283Z,32.10
2019-05-03T01:00:53.450Z,32.10
2019-05-03T01:03:47.504Z,32.10
2019-05-03T01:06:42.382Z,32.10
2019-05-03T01:09:42.275Z,32.10
2019-05-03T01:12:38.924Z,32.10
2019-05-03T01:15:47.164Z,32.10
2019-05-03T01:18:41.739Z,32.10
2019-05-03T01:21:35.744Z,32.10
2019-05-03T01:24:29.250Z,32.10
2019-05-03T01:27:22.682Z,32.10
2019-05-03T01:30:15.758Z,32.10
2019-05-03T01:33:08.969Z,32.10
2019-05-03T01:36:02.783Z,32.10
2019-05-03T01:38:56.169Z,32.10
2019-05-03T01:41:51.780Z,32.10
2019-05-03T01:44:45.220Z,32.10
2019-05-03T01:47:54.053Z,32.10
2019-05-03T01:50:57.831Z,32.10
2019-05-03T01:53:52.867Z,32.10
2019-05-03T01:56:56.846Z,32.10
2019-05-03T01:59:43.370Z,32.10
2019-05-03T02:02:47.097Z,32.10
2019-05-03T02:05:54.436Z,32.10
2019-05-03T02:08:49.084Z,32.10
2019-05-03T02:11:42.248Z,32.10
2019-05-03T02:14:36.210Z,32.10
2019-05-03T02:17:31.803Z,32.10
2019-05-03T02:20:25.488Z,32.10
2019-05-03T02:23:19.761Z,32.10
2019-05-03T02:26:14.363Z,32.10
2019-05-03T02:29:12.577Z,32.10
2019-05-03T02:32:07.266Z,32.10
2019-05-03T02:35:03.111Z,32.10
2019-05-03T02:37:57.187Z,32.10
2019-05-03T02:40:53.196Z,32.10
2019-05-03T02:43:50.841Z,32.10
2019-05-03T02:47:01.930Z,32.10
2019-05-03T02:50:02.456Z,32.10
2019-05-03T02:52:56.827Z,32.10
2019-05-03T02:55:50.871Z,32.10
2019-05-03T02:58:46.069Z,32.10
2019-05-03T03:01:39.295Z,32.10
2019-05-03T03:04:35.241Z,32.10
2019-05-03T03:07:27.884Z,32.10
2019-05-03T03:10:21.454Z,32.10
2019-05-03T03:13:16.376Z,32.10
2019-05-03T03:16:10.870Z,32.10
2019-05-03T03:19:06.907Z,32.10
2019-05-03T03:22:05.675Z,32.10
2019-05-03T03:24:59.223Z,32.10
2019-05-03T03:27:55.571Z,32.10
2019-05-03T03:31:10.356Z,32.10
2019-05-03T03:34:08.633Z,32.10
2019-05-03T03:37:08.920Z,32.10
2019-05-03T03:39:59.246Z,32.10
2019-05-03T03:42:55.545Z,32.10
2019-05-03T03:45:49.539Z,32.10
2019-05-03T03:48:46.046Z,32.10
2019-05-03T03:51:40.934Z,32.10
2019-05-03T03:54:36.762Z,32.10
2019-05-03T03:57:30.917Z,32.10
2019-05-03T04:00:26.062Z,32.10
2019-05-03T04:03:20.979Z,32.10
2019-05-03T04:06:16.311Z,32.20
2019-05-03T04:09:11.084Z,32.10
2019-05-03T04:12:06.748Z,32.10
2019-05-03T04:15:11.590Z,32.10
2019-05-03T04:18:30.294Z,32.10
2019-05-03T04:21:25.853Z,32.20
2019-05-03T04:24:20.249Z,32.10
2019-05-03T04:27:23.302Z,32.20
2019-05-03T04:30:19.030Z,32.20
2019-05-03T04:33:11.264Z,32.20
2019-05-03T04:36:05.597Z,32.20
2019-05-03T04:38:59.434Z,32.20
2019-05-03T04:41:55.845Z,32.20
2019-05-03T04:44:49.179Z,32.20
2019-05-03T04:47:42.993Z,32.20
2019-05-03T04:50:36.750Z,32.20
2019-05-03T04:53:31.532Z,32.20
2019-05-03T04:56:26.185Z,31.70
2019-05-03T04:59:19.058Z,31.10
2019-05-03T05:02:15.901Z,30.50
2019-05-03T05:05:10.196Z,29.90
2019-05-03T05:08:05.916Z,29.40
2019-05-03T05:11:00.979Z,28.90
2019-05-03T05:13:56.079Z,28.60
2019-05-03T05:16:50.198Z,28.70
2019-05-03T05:19:50.757Z,28.90
2019-05-03T05:22:46.780Z,29.00
2019-05-03T05:25:49.061Z,29.00
2019-05-03T05:28:52.281Z,29.20
2019-05-03T05:31:59.445Z,29.20
2019-05-03T05:35:02.547Z,29.10
2019-05-03T05:38:01.916Z,29.00
2019-05-03T05:41:11.416Z,28.90
2019-05-03T05:44:36.318Z,28.80
2019-05-03T05:47:55.076Z,28.60
2019-05-03T05:50:52.699Z,28.60
2019-05-03T05:53:48.804Z,28.40
2019-05-03T05:56:57.147Z,28.80
2019-05-03T06:00:05.975Z,29.10
2019-05-03T06:03:05.254Z,29.30
2019-05-03T06:06:10.637Z,29.50
2019-05-03T06:09:21.975Z,29.70
2019-05-03T06:12:43.015Z,29.80
2019-05-03T06:16:11.314Z,29.90
2019-05-03T06:19:14.695Z,30.00
2019-05-03T06:22:27.463Z,30.10
2019-05-03T06:25:45.294Z,30.20
2019-05-03T06:28:41.804Z,30.30
2019-05-03T06:31:49.846Z,30.30
2019-05-03T06:34:51.276Z,30.40
2019-05-03T06:37:48.151Z,30.50
2019-05-03T06:40:48.329Z,30.50
2019-05-03T06:43:50.265Z,30.50
2019-05-03T06:46:51.756Z,30.60
2019-05-03T06:49:48.392Z,30.60
2019-05-03T06:52:44.410Z,30.70
2019-05-03T06:55:40.050Z,30.70
2019-05-03T06:58:36.604Z,30.70
2019-05-03T07:01:38.692Z,30.80
2019-05-03T07:04:38.899Z,30.80
2019-05-03T07:07:56.402Z,30.80
2019-05-03T07:10:54.961Z,30.90
2019-05-03T07:13:50.247Z,30.90
2019-05-03T07:16:44.397Z,30.90
2019-05-03T07:19:39.444Z,30.90
2019-05-03T07:22:35.186Z,30.90
2019-05-03T07:25:34.445Z,30.90
2019-05-03T07:28:43.570Z,30.40
2019-05-03T07:31:29.337Z,29.80
2019-05-03T07:34:26.621Z,29.60
2019-05-03T07:37:24.450Z,29.90
2019-05-03T07:40:21.291Z,30.20
2019-05-03T07:43:19.069Z,30.30
2019-05-03T07:46:14.881Z,30.40
2019-05-03T07:49:09.917Z,30.50
2019-05-03T07:52:34.980Z,30.60
2019-05-03T07:55:45.669Z,30.70
2019-05-03T07:58:53.051Z,30.70
2019-05-03T08:01:46.252Z,30.80
2019-05-03T08:04:40.593Z,30.80
2019-05-03T08:07:37.363Z,30.90
2019-05-03T08:10:35.670Z,30.90
2019-05-03T08:13:35.592Z,30.90
2019-05-03T08:16:31.714Z,31.00
2019-05-03T08:19:27.644Z,31.00
2019-05-03T08:22:25.764Z,31.00
2019-05-03T08:25:21.520Z,31.00
2019-05-03T08:28:16.249Z,31.00
2019-05-03T08:31:26.741Z,31.00
2019-05-03T08:34:45.290Z,31.10
2019-05-03T08:37:47.433Z,31.20
2019-05-03T08:40:48.789Z,31.10
2019-05-03T08:43:44.503Z,31.20
2019-05-03T08:46:40.107Z,31.20
2019-05-03T08:49:35.017Z,31.20
2019-05-03T08:52:29.834Z,31.20
2019-05-03T08:55:24.961Z,31.20
2019-05-03T08:58:19.924Z,31.20
2019-05-03T09:01:14.875Z,31.30
2019-05-03T09:04:08.568Z,31.20
2019-05-03T09:07:05.533Z,31.30
2019-05-03T09:10:16.781Z,31.30
2019-05-03T09:13:21.089Z,31.30
2019-05-03T09:16:17.633Z,31.30
2019-05-03T09:19:39.388Z,31.30
2019-05-03T09:22:38.645Z,31.40
2019-05-03T09:25:35.595Z,31.40
2019-05-03T09:28:29.272Z,31.40
2019-05-03T09:31:25.126Z,31.40
2019-05-03T09:34:20.810Z,31.40
2019-05-03T09:37:16.016Z,31.40
2019-05-03T09:40:11.890Z,31.40
2019-05-03T09:43:10.675Z,31.50
2019-05-03T09:46:09.697Z,31.40
2019-05-03T09:49:12.755Z,31.40
2019-05-03T09:52:08.420Z,31.40
2019-05-03T09:55:07.632Z,31.50
2019-05-03T09:58:05.773Z,31.50
2019-05-03T10:01:01.219Z,31.50
2019-05-03T10:03:56.896Z,31.50
2019-05-03T10:06:52.312Z,31.50
2019-05-03T10:09:46.623Z,31.50
2019-05-03T10:12:41.446Z,31.50
2019-05-03T10:15:39.994Z,31.50
2019-05-03T10:18:35.542Z,31.50
2019-05-03T10:21:35.566Z,31.50
2019-05-03T10:24:34.993Z,31.50
2019-05-03T10:27:34.600Z,31.50
2019-05-03T10:30:35.458Z,31.50
2019-05-03T10:33:32.474Z,31.60
2019-05-03T10:36:29.813Z,31.50
2019-05-03T10:39:26.269Z,31.60
2019-05-03T10:42:20.623Z,31.60
2019-05-03T10:45:15.453Z,31.60
2019-05-03T10:48:12.501Z,31.60
2019-05-03T10:51:06.062Z,31.60
2019-05-03T10:54:01.983Z,31.60
2019-05-03T10:57:08.342Z,31.60
2019-05-03T11:00:05.076Z,31.60
2019-05-03T11:03:05.295Z,31.60
2019-05-03T11:05:59.907Z,31.60
2019-05-03T11:08:54.606Z,31.60
2019-05-03T11:11:50.205Z,31.40
2019-05-03T11:14:45.527Z,31.30
2019-05-03T11:17:45.367Z,31.20
2019-05-03T11:20:41.974Z,30.80
2019-05-03T11:23:42.066Z,30.30
2019-05-03T11:26:42.727Z,29.80
2019-05-03T11:29:37.324Z,29.50
2019-05-03T11:32:47.979Z,29.40
2019-05-03T11:36:06.569Z,29.00
2019-05-03T11:39:02.483Z,28.60
2019-05-03T11:42:00.921Z,28.40
2019-05-03T11:44:56.503Z,28.20
2019-05-03T11:47:54.902Z,28.00
2019-05-03T11:50:50.398Z,27.80
2019-05-03T11:53:47.333Z,27.60
2019-05-03T12:00:14.668Z,27.30
2019-05-03T12:03:35.523Z,27.20
2019-05-03T12:06:32.958Z,27.20
2019-05-03T12:09:29.791Z,27.20
2019-05-03T12:55:50.878Z,30.20
2019-05-03T12:58:55.856Z,30.20
2019-05-03T13:02:07.871Z,30.30
2019-05-03T13:05:04.740Z,30.30
2019-05-03T13:08:19.085Z,30.40
2019-05-03T13:11:13.581Z,30.40
2019-05-03T13:14:08.526Z,30.40
2019-05-03T13:17:04.636Z,30.50
2019-05-03T13:19:59.188Z,30.50
2019-05-03T13:22:55.908Z,30.50
2019-05-03T13:25:50.841Z,30.60
2019-05-03T13:28:48.040Z,30.60
2019-05-03T13:31:57.858Z,30.60
2019-05-03T13:34:41.369Z,30.70
2019-05-03T13:37:36.283Z,30.70
2019-05-03T13:40:30.241Z,30.70
2019-05-03T13:43:25.394Z,30.70
2019-05-03T13:46:19.926Z,30.70
2019-05-03T13:49:15.926Z,30.70
2019-05-03T13:52:10.071Z,30.80
2019-05-03T13:55:05.268Z,30.80
2019-05-03T13:57:58.617Z,30.80
2019-05-03T14:00:54.951Z,30.80
2019-05-03T14:03:49.495Z,30.80
2019-05-03T14:06:44.717Z,30.90
2019-05-03T14:09:38.467Z,30.90
2019-05-03T14:12:32.590Z,30.90
2019-05-03T14:15:27.782Z,30.90
2019-05-03T14:18:22.563Z,30.90
2019-05-03T14:21:24.328Z,31.00
2019-05-03T14:24:20.795Z,31.00
2019-05-03T14:27:17.079Z,30.90
2019-05-03T14:30:11.850Z,30.90
2019-05-03T14:33:06.398Z,31.00
2019-05-03T14:36:00.487Z,31.00
2019-05-03T14:38:58.471Z,31.00
2019-05-03T14:41:55.887Z,31.00
2019-05-03T14:44:50.218Z,31.00
2019-05-03T14:47:45.780Z,31.00
2019-05-03T14:50:41.212Z,31.00
2019-05-03T14:53:37.501Z,31.00
2019-05-03T14:56:35.731Z,31.00
2019-05-03T14:59:47.898Z,31.10
2019-05-03T15:02:51.142Z,31.00
2019-05-03T15:05:47.299Z,31.00
2019-05-03T15:08:42.337Z,31.00
2019-05-03T15:11:37.436Z,31.10
2019-05-03T15:14:34.599Z,31.10
2019-05-03T15:17:28.447Z,31.10
2019-05-03T15:20:22.087Z,31.10
2019-05-03T15:23:17.444Z,31.10
2019-05-03T15:26:11.931Z,31.10
2019-05-03T15:29:07.613Z,31.20
2019-05-03T15:32:02.037Z,31.10
2019-05-03T15:34:56.705Z,31.10
2019-05-03T15:37:51.522Z,31.10
2019-05-03T15:40:46.412Z,31.10
2019-05-03T15:43:46.539Z,31.20
2019-05-03T15:46:47.050Z,31.20
2019-05-03T15:49:41.870Z,31.20
2019-05-03T15:52:36.016Z,31.20
2019-05-03T15:55:32.745Z,31.20
2019-05-03T15:58:29.154Z,31.20
2019-05-03T16:01:24.913Z,31.20
2019-05-03T16:04:19.000Z,31.20
2019-05-03T16:07:14.400Z,31.20
2019-05-03T16:10:09.891Z,31.20
2019-05-03T16:13:04.831Z,31.20
2019-05-03T16:15:59.662Z,31.20
2019-05-03T16:18:54.270Z,31.20
2019-05-03T16:21:48.946Z,31.20
2019-05-03T16:24:42.219Z,31.20
2019-05-03T16:27:55.324Z,31.20
2019-05-03T16:31:02.266Z,31.20
2019-05-03T16:33:58.597Z,31.20
2019-05-03T16:36:54.998Z,31.20
2019-05-03T16:39:50.084Z,31.20
2019-05-03T16:42:46.259Z,31.20
2019-05-03T16:45:42.017Z,31.20
2019-05-03T16:48:35.966Z,31.20
2019-05-03T16:51:31.464Z,31.20
2019-05-03T16:54:25.571Z,31.20
2019-05-03T16:57:18.885Z,31.20
2019-05-03T17:00:15.365Z,31.20
2019-05-03T17:03:09.264Z,31.30
2019-05-03T17:06:39.297Z,31.20
2019-05-03T17:09:57.874Z,31.30
2019-05-03T17:12:54.369Z,31.30
2019-05-03T17:15:49.577Z,31.30
2019-05-03T17:18:44.708Z,31.30
2019-05-03T17:21:39.846Z,31.30
2019-05-03T17:24:35.174Z,31.30
2019-05-03T17:27:28.713Z,31.30
2019-05-03T17:30:22.118Z,31.30
2019-05-03T17:33:16.123Z,31.30
2019-05-03T17:36:10.457Z,31.30
2019-05-03T17:39:10.184Z,31.30
2019-05-03T17:42:26.419Z,31.30
2019-05-03T17:45:22.994Z,31.30
2019-05-03T17:48:16.387Z,31.30
2019-05-03T17:51:11.495Z,31.30
2019-05-03T17:54:29.842Z,31.30
2019-05-03T17:57:26.323Z,31.30
2019-05-03T18:00:35.770Z,31.30
2019-05-03T18:03:32.960Z,31.30
2019-05-03T18:06:34.768Z,31.30
2019-05-03T18:09:34.555Z,31.30
2019-05-03T18:12:28.210Z,31.30
2019-05-03T18:15:21.203Z,31.30
2019-05-03T18:18:15.754Z,31.30
2019-05-03T18:21:09.255Z,31.30
2019-05-03T18:24:02.564Z,31.30
2019-05-03T18:26:55.912Z,31.30
2019-05-03T18:29:50.090Z,31.40
2019-05-03T18:32:45.264Z,31.30
2019-05-03T18:35:39.818Z,31.40
2019-05-03T18:38:41.391Z,31.40
2019-05-03T18:41:36.384Z,31.40
2019-05-03T18:44:38.007Z,31.40
2019-05-03T18:47:32.096Z,31.30
2019-05-03T18:50:27.130Z,31.40
2019-05-03T18:53:22.355Z,31.30
2019-05-03T18:56:16.913Z,31.40
2019-05-03T18:59:14.511Z,31.40
2019-05-03T19:02:07.597Z,31.40
2019-05-03T19:05:01.600Z,31.40
2019-05-03T19:08:07.858Z,31.40
2019-05-03T19:11:07.163Z,31.40
2019-05-03T19:14:04.896Z,31.40
2019-05-03T19:17:15.978Z,31.40
2019-05-03T19:20:15.776Z,31.40
2019-05-03T19:23:10.949Z,31.40
2019-05-03T19:26:06.758Z,31.40
2019-05-03T19:29:01.002Z,31.40
2019-05-03T19:31:57.093Z,31.40
2019-05-03T19:34:52.268Z,31.40
2019-05-03T19:37:47.969Z,31.40
2019-05-03T19:40:42.908Z,31.40
2019-05-03T19:43:38.528Z,31.40
2019-05-03T19:46:35.125Z,31.40
2019-05-03T19:49:30.173Z,31.40
2019-05-03T19:52:27.793Z,31.40
2019-05-03T19:55:23.547Z,31.40
2019-05-03T19:58:19.923Z,31.40
2019-05-03T20:01:43.024Z,31.40
2019-05-03T20:05:05.681Z,31.40
2019-05-03T20:08:24.650Z,31.40
2019-05-03T20:11:22.263Z,31.40
2019-05-03T20:14:18.659Z,31.40
2019-05-03T20:17:14.791Z,31.40
2019-05-03T20:20:09.902Z,31.40
2019-05-03T20:23:02.768Z,31.40
2019-05-03T20:25:56.093Z,31.40
2019-05-03T20:28:51.638Z,31.40
2019-05-03T20:31:46.824Z,31.40
2019-05-03T20:34:41.716Z,31.40
2019-05-03T20:37:35.525Z,31.40
2019-05-03T20:40:30.807Z,31.40
2019-05-03T20:43:44.522Z,31.40
2019-05-03T20:46:47.729Z,31.40
2019-05-03T20:49:42.459Z,31.40
2019-05-03T20:52:36.352Z,31.50
2019-05-03T20:55:29.559Z,31.40
2019-05-03T20:58:25.158Z,31.40
2019-05-03T21:01:19.963Z,31.40
2019-05-03T21:04:15.190Z,31.40
2019-05-03T21:07:08.299Z,31.40
2019-05-03T21:10:01.954Z,31.40
2019-05-03T21:12:55.316Z,31.40
2019-05-03T21:16:06.885Z,31.40
2019-05-03T21:19:08.534Z,31.40
2019-05-03T21:22:05.699Z,31.40
2019-05-03T21:25:15.243Z,31.40
2019-05-03T21:28:08.828Z,31.40
2019-05-03T21:31:05.416Z,31.40
2019-05-03T21:33:58.656Z,31.40
2019-05-03T21:36:52.054Z,31.40
2019-05-03T21:39:45.650Z,31.40
2019-05-03T21:42:38.808Z,31.40
2019-05-03T21:45:40.182Z,31.40
2019-05-03T21:48:51.412Z,31.40
2019-05-03T21:51:45.072Z,31.40
2019-05-03T21:54:38.091Z,31.40
2019-05-03T21:57:31.981Z,31.40
2019-05-03T22:00:26.804Z,31.40
2019-05-03T22:03:21.787Z,31.40
2019-05-03T22:06:17.170Z,31.40
2019-05-03T22:09:11.080Z,31.40
2019-05-03T22:12:06.460Z,31.40
2019-05-03T22:15:15.172Z,31.40
2019-05-03T22:18:25.288Z,31.40
2019-05-03T22:21:36.987Z,31.40
2019-05-03T22:24:49.199Z,31.40
2019-05-03T22:27:45.516Z,31.40
2019-05-03T22:30:39.724Z,31.40
2019-05-03T22:33:33.580Z,31.40
2019-05-03T22:36:27.155Z,31.40
2019-05-03T22:39:21.689Z,31.40
2019-05-03T22:42:16.120Z,31.40
2019-05-03T22:45:10.453Z,31.40
2019-05-03T22:48:05.272Z,31.40
2019-05-03T22:50:58.915Z,31.40
2019-05-03T22:53:55.291Z,31.40
2019-05-03T22:56:50.071Z,31.40
2019-05-03T22:59:44.881Z,31.40
2019-05-03T23:02:39.696Z,31.40
2019-05-03T23:05:34.768Z,31.40
2019-05-03T23:08:30.346Z,31.40
2019-05-03T23:11:24.527Z,31.40
2019-05-03T23:14:18.714Z,31.40
2019-05-03T23:17:14.990Z,31.40
2019-05-03T23:20:15.266Z,31.40
2019-05-03T23:23:11.424Z,31.40
2019-05-03T23:26:05.376Z,31.40
2019-05-03T23:28:58.895Z,31.40
2019-05-03T23:31:51.850Z,31.40
2019-05-03T23:34:46.440Z,31.40
2019-05-03T23:37:39.952Z,31.40
2019-05-03T23:40:34.740Z,31.40
2019-05-03T23:43:28.070Z,31.40
2019-05-03T23:46:25.277Z,31.40
2019-05-03T23:49:18.597Z,31.40
2019-05-03T23:52:30.242Z,31.40
2019-05-03T23:55:44.910Z,31.40
2019-05-03T23:58:38.129Z,31.40
